KHBG/HBG METAR and TAF weather

Enter ICAO airport designator
Station Type Date Time Source
KHBG METAR 2021/04/18 02:53 UTC NOAA

KHBG 180253Z AUTO 34003KT 10SM -RA SCT039 BKN120 16/11 A2996 RMK AO2 RAB49 SLP144 P0000 60000 T01560111 53016


Station Type Date Time Source
KHBG Decoded METAR 2021/04/18 02:53 UTC NOAA

HATTIESBURG CHAIN MUNICIPAL, MS, United States (KHBG) 31-16N 89-15W 44M
Apr 17, 2021 - 10:53 PM EDT / 2021.04.18 0253 UTC
Wind: from the NNW (340 degrees) at 3 MPH (3 KT):0
Visibility: 10 mile(s):0
Sky conditions: mostly cloudy
Weather: light rain
Precipitation last hour: A trace
Temperature: 60.1 F (15.6 C)
Dew Point: 52.0 F (11.1 C)
Relative Humidity: 74%
Pressure (altimeter): 29.96 in. Hg (1014 hPa)
Pressure tendency: 0.05 inches (1.6 hPa) higher than three hours ago
ob: KHBG 180253Z AUTO 34003KT 10SM -RA SCT039 BKN120 16/11 A2996 RMK AO2 RAB49 SLP144 P0000 60000 T01560111 53016
cycle: 3

Station Type Date Time Source
KHBG TAF 2021/04/17 18:22 UTC NOAA

TAF KHBG 171720Z 1718/1818 00000KT P6SM BKN019
FM171900 34005KT P6SM VCSH OVC025
FM180100 33005KT P6SM OVC050
FM181000 34003KT P6SM OVC007
FM181200 34003KT 4SM BR OVC003
FM181400 01005KT P6SM SCT250

Example: see airport list